createdAt,value
2023-04-22T00:01:45.667Z,81.61
2023-04-22T00:04:19.224Z,81.17
2023-04-22T00:06:47.986Z,81.02
2023-04-22T00:09:16.625Z,81.50
2023-04-22T00:11:45.042Z,81.62
2023-04-22T00:14:13.819Z,81.06
2023-04-22T00:16:42.316Z,81.49
2023-04-22T00:19:10.714Z,82.93
2023-04-22T00:21:41.083Z,82.93
2023-04-22T00:24:14.204Z,86.91
2023-04-22T00:26:43.005Z,87.59
2023-04-22T00:29:11.385Z,87.04
2023-04-22T00:31:39.901Z,86.12
2023-04-22T00:34:08.950Z,85.86
2023-04-22T00:36:37.474Z,87.13
2023-04-22T00:39:08.212Z,86.87
2023-04-22T00:41:37.264Z,86.90
2023-04-22T00:44:06.257Z,87.02
2023-04-22T00:46:36.070Z,87.45
2023-04-22T00:49:04.476Z,86.88
2023-04-22T00:51:33.058Z,87.23
2023-04-22T00:54:02.192Z,87.98
2023-04-22T00:56:36.099Z,87.71
2023-04-22T00:59:04.800Z,86.79
2023-04-22T01:01:34.657Z,88.75
2023-04-22T01:04:04.751Z,89.01
2023-04-22T01:06:33.672Z,90.93
2023-04-22T01:09:02.174Z,91.11
2023-04-22T01:11:32.414Z,90.82
2023-04-22T01:14:01.022Z,91.13
2023-04-22T01:16:31.392Z,90.89
2023-04-22T01:18:59.998Z,93.08
2023-04-22T01:21:29.946Z,92.51
2023-04-22T01:23:59.980Z,92.57
2023-04-22T01:26:28.473Z,91.26
2023-04-22T01:28:57.366Z,91.58
2023-04-22T01:31:26.137Z,91.84
2023-04-22T01:33:54.955Z,91.35
2023-04-22T01:36:23.603Z,91.91
2023-04-22T01:38:52.841Z,92.41
2023-04-22T01:41:22.900Z,91.63
2023-04-22T01:43:52.200Z,92.75
2023-04-22T01:46:21.131Z,92.53
2023-04-22T01:48:51.698Z,92.17
2023-04-22T01:51:21.724Z,92.42
2023-04-22T01:53:50.762Z,93.33
2023-04-22T01:56:19.652Z,92.35
2023-04-22T01:58:49.649Z,93.01
2023-04-22T02:01:19.088Z,92.93
2023-04-22T02:03:47.870Z,92.77
2023-04-22T02:06:19.225Z,92.99
2023-04-22T02:08:47.826Z,93.67
2023-04-22T02:11:16.403Z,93.58
2023-04-22T02:13:45.157Z,94.20
2023-04-22T02:16:15.218Z,93.58
2023-04-22T02:18:43.755Z,93.32
2023-04-22T02:21:12.300Z,92.77
2023-04-22T02:23:41.856Z,93.70
2023-04-22T02:26:10.397Z,94.34
2023-04-22T02:28:38.890Z,94.33
2023-04-22T02:31:07.777Z,93.57
2023-04-22T02:33:37.873Z,95.44
2023-04-22T02:36:06.582Z,94.00
2023-04-22T02:38:35.114Z,93.76
2023-04-22T02:41:04.070Z,93.76
2023-04-22T02:43:35.414Z,94.08
2023-04-22T02:46:03.927Z,94.09
2023-04-22T02:48:32.415Z,93.60
2023-04-22T02:51:03.088Z,93.82
2023-04-22T02:53:31.732Z,94.43
2023-04-22T02:56:00.445Z,94.32
2023-04-22T02:58:28.968Z,94.60
2023-04-22T03:00:58.420Z,94.45
2023-04-22T03:03:28.033Z,94.98
2023-04-22T03:05:56.737Z,94.90
2023-04-22T03:08:27.347Z,94.81
2023-04-22T03:10:55.832Z,94.88
2023-04-22T03:13:24.243Z,95.25
2023-04-22T03:15:52.728Z,95.26
2023-04-22T03:18:21.411Z,95.79
2023-04-22T03:20:50.807Z,95.78
2023-04-22T03:23:19.395Z,95.29
2023-04-22T03:25:49.428Z,96.41
2023-04-22T03:28:17.923Z,96.14
2023-04-22T03:30:47.614Z,95.93
2023-04-22T03:33:16.161Z,96.49
2023-04-22T03:35:44.902Z,96.54
2023-04-22T03:38:13.483Z,96.74
2023-04-22T03:40:42.386Z,97.21
2023-04-22T03:43:12.251Z,97.04
2023-04-22T03:45:41.153Z,97.65
2023-04-22T03:48:09.812Z,97.82
2023-04-22T03:50:38.474Z,98.00
2023-04-22T03:53:06.961Z,97.95
2023-04-22T03:55:36.299Z,97.78
2023-04-22T03:58:04.761Z,97.96
2023-04-22T04:00:35.100Z,97.24
2023-04-22T04:03:03.892Z,97.66
2023-04-22T04:05:32.663Z,97.90
2023-04-22T04:08:01.470Z,97.46
2023-04-22T04:10:30.279Z,98.14
2023-04-22T04:12:59.151Z,98.67
2023-04-22T04:15:27.641Z,100.00
2023-04-22T04:17:58.359Z,99.75
2023-04-22T04:20:26.963Z,100.00
2023-04-22T04:22:55.453Z,100.00
2023-04-22T04:25:24.079Z,99.90
2023-04-22T04:27:53.241Z,100.00
2023-04-22T04:30:21.862Z,100.00
2023-04-22T04:32:52.506Z,100.00
2023-04-22T04:35:24.038Z,100.00
2023-04-22T04:37:54.047Z,100.00
2023-04-22T04:40:23.546Z,100.00
2023-04-22T04:42:53.369Z,100.00
2023-04-22T04:45:22.562Z,100.00
2023-04-22T04:47:52.969Z,100.00
2023-04-22T04:50:23.749Z,100.00
2023-04-22T04:52:53.011Z,100.00
2023-04-22T04:55:21.827Z,100.00
2023-04-22T04:57:50.627Z,100.00
2023-04-22T05:00:19.460Z,100.00
2023-04-22T05:02:48.187Z,100.00
2023-04-22T05:05:17.018Z,100.00
2023-04-22T05:07:47.037Z,100.00
2023-04-22T05:10:15.615Z,100.00
2023-04-22T05:12:44.415Z,100.00
2023-04-22T05:15:13.296Z,100.00
2023-04-22T05:17:41.955Z,100.00
2023-04-22T05:20:11.151Z,100.00
2023-04-22T05:22:41.655Z,100.00
2023-04-22T05:25:12.532Z,100.00
2023-04-22T05:27:42.380Z,100.00
2023-04-22T05:30:12.118Z,100.00
2023-04-22T05:32:40.621Z,100.00
2023-04-22T05:35:10.417Z,100.00
2023-04-22T05:37:38.967Z,100.00
2023-04-22T05:40:08.847Z,100.00
2023-04-22T05:42:41.129Z,100.00
2023-04-22T05:45:10.711Z,100.00
2023-04-22T05:47:39.201Z,100.00
2023-04-22T05:50:08.919Z,100.00
2023-04-22T05:52:37.429Z,100.00
2023-04-22T05:55:07.209Z,100.00
2023-04-22T05:57:35.829Z,100.00
2023-04-22T06:00:07.308Z,100.00
2023-04-22T06:02:36.026Z,100.00
2023-04-22T06:05:05.205Z,100.00
2023-04-22T06:07:34.122Z,100.00
2023-04-22T06:12:51.062Z,99.24
2023-04-22T06:15:21.619Z,96.90
2023-04-22T06:17:50.411Z,96.63
2023-04-22T06:20:18.996Z,96.23
2023-04-22T06:22:47.869Z,96.03
2023-04-22T06:25:16.465Z,96.27
2023-04-22T06:27:45.365Z,96.62
2023-04-22T06:30:14.363Z,95.98
2023-04-22T06:32:44.410Z,96.19
2023-04-22T06:35:13.016Z,95.18
2023-04-22T06:37:41.662Z,92.45
2023-04-22T06:40:11.441Z,90.59
2023-04-22T06:42:39.910Z,89.50
2023-04-22T06:45:13.069Z,88.82
2023-04-22T06:47:41.818Z,88.19
2023-04-22T06:50:13.603Z,89.89
2023-04-22T06:52:42.189Z,89.80
2023-04-22T06:55:11.501Z,90.26
2023-04-22T06:57:40.055Z,90.39
2023-04-22T07:00:09.899Z,90.00
2023-04-22T07:02:38.805Z,97.04
2023-04-22T07:05:07.550Z,100.00
2023-04-22T07:07:37.646Z,100.00
2023-04-22T07:10:06.987Z,100.00
2023-04-22T07:12:35.500Z,97.80
2023-04-22T07:15:03.956Z,97.90
2023-04-22T07:17:32.505Z,96.73
2023-04-22T07:20:00.968Z,96.45
2023-04-22T07:22:29.706Z,93.64
2023-04-22T07:24:59.789Z,92.31
2023-04-22T07:27:28.843Z,94.04
2023-04-22T07:29:57.530Z,94.35
2023-04-22T07:32:26.453Z,96.73
2023-04-22T07:34:54.984Z,94.56
2023-04-22T07:37:23.819Z,94.75
2023-04-22T07:39:52.356Z,94.70
2023-04-22T07:42:22.205Z,94.94
2023-04-22T07:44:50.621Z,95.22
2023-04-22T07:47:19.186Z,95.22
2023-04-22T07:49:47.633Z,94.95
2023-04-22T07:52:16.028Z,95.30
2023-04-22T07:54:44.471Z,93.44
2023-04-22T07:57:13.106Z,93.75
2023-04-22T07:59:43.045Z,92.85
2023-04-22T08:02:11.576Z,92.51
2023-04-22T08:04:40.314Z,91.36
2023-04-22T08:07:26.902Z,92.19
2023-04-22T08:09:57.793Z,91.91
2023-04-22T08:12:26.343Z,90.71
2023-04-22T08:14:58.239Z,90.70
2023-04-22T08:17:26.934Z,89.23
2023-04-22T08:19:55.538Z,89.19
2023-04-22T08:22:24.150Z,89.18
2023-04-22T08:24:52.595Z,87.81
2023-04-22T08:27:23.099Z,88.97
2023-04-22T08:29:51.605Z,89.40
2023-04-22T08:32:23.481Z,86.06
2023-04-22T08:34:52.141Z,79.11
2023-04-22T08:37:22.682Z,81.72
2023-04-22T08:39:51.369Z,77.43
2023-04-22T08:42:23.004Z,72.38
2023-04-22T08:44:52.400Z,75.26
2023-04-22T08:47:23.555Z,73.98
2023-04-22T08:49:55.019Z,69.21
2023-04-22T08:52:23.884Z,70.25
2023-04-22T08:54:56.000Z,71.38
2023-04-22T08:57:25.171Z,69.17
2023-04-22T08:59:55.716Z,66.25
2023-04-22T09:02:26.488Z,64.01
2023-04-22T09:04:55.330Z,65.60
2023-04-22T09:07:26.099Z,63.78
2023-04-22T09:09:56.172Z,62.54
2023-04-22T09:12:25.220Z,63.40
2023-04-22T09:14:54.785Z,62.77
2023-04-22T09:17:33.659Z,57.05
2023-04-22T09:20:04.783Z,58.29
2023-04-22T09:22:40.414Z,58.66
2023-04-22T09:25:18.593Z,59.73
2023-04-22T09:27:51.179Z,60.77
2023-04-22T09:30:20.589Z,57.40
2023-04-22T09:32:58.224Z,56.24
2023-04-22T09:35:31.293Z,54.72
2023-04-22T09:38:01.024Z,57.05
2023-04-22T09:40:30.464Z,62.25
2023-04-22T09:43:02.287Z,57.38
2023-04-22T09:45:32.521Z,54.53
2023-04-22T09:48:07.213Z,58.22
2023-04-22T09:50:35.659Z,56.28
2023-04-22T09:53:05.451Z,58.86
2023-04-22T09:55:36.139Z,54.30
2023-04-22T09:58:09.039Z,57.72
2023-04-22T10:00:41.368Z,51.32
2023-04-22T10:03:11.448Z,51.29
2023-04-22T10:05:41.755Z,53.17
2023-04-22T10:08:11.780Z,49.84
2023-04-22T10:10:41.337Z,48.92
2023-04-22T10:13:10.029Z,43.97
2023-04-22T10:15:41.403Z,42.70
2023-04-22T10:18:15.991Z,41.96
2023-04-22T10:20:45.629Z,44.74
2023-04-22T10:23:15.956Z,42.19
2023-04-22T10:25:44.485Z,42.93
2023-04-22T10:28:14.666Z,43.38
2023-04-22T10:30:43.393Z,42.45
2023-04-22T10:33:42.224Z,41.23
2023-04-22T10:36:17.256Z,42.15
2023-04-22T10:39:22.470Z,46.22
2023-04-22T10:41:56.097Z,44.88
2023-04-22T10:44:24.880Z,39.69
2023-04-22T10:47:03.466Z,39.99
2023-04-22T10:49:35.678Z,40.20
2023-04-22T10:52:05.465Z,41.27
2023-04-22T10:55:02.966Z,40.54
2023-04-22T10:57:42.101Z,43.38
2023-04-22T11:00:52.432Z,39.45
2023-04-22T11:03:28.754Z,41.64
2023-04-22T11:06:18.671Z,38.60
2023-04-22T11:08:48.683Z,41.32
2023-04-22T11:11:19.573Z,39.00
2023-04-22T11:13:51.002Z,38.82
2023-04-22T11:16:23.292Z,40.54
2023-04-22T11:18:52.676Z,40.08
2023-04-22T11:21:22.974Z,38.62
2023-04-22T11:23:53.479Z,38.82
2023-04-22T11:26:35.583Z,37.63
2023-04-22T11:29:04.314Z,37.50
2023-04-22T11:31:32.789Z,37.71
2023-04-22T11:34:01.412Z,38.36
2023-04-22T11:36:31.815Z,38.71
2023-04-22T11:39:00.532Z,37.79
2023-04-22T11:41:30.323Z,39.02
2023-04-22T11:43:59.150Z,38.00
2023-04-22T11:46:32.419Z,38.92
2023-04-22T11:49:14.298Z,37.49
2023-04-22T11:51:55.590Z,36.49
2023-04-22T11:54:33.997Z,37.58
2023-04-22T11:57:04.564Z,35.75
2023-04-22T11:59:33.106Z,36.58
2023-04-22T12:02:01.827Z,35.29
2023-04-22T12:04:30.229Z,35.57
2023-04-22T12:07:00.268Z,36.70
2023-04-22T12:09:30.075Z,35.01
2023-04-22T12:11:58.587Z,37.31
2023-04-22T12:14:33.437Z,36.74
2023-04-22T12:17:05.979Z,37.06
2023-04-22T12:19:34.415Z,36.58
2023-04-22T12:22:04.761Z,37.57
2023-04-22T12:24:33.354Z,35.03
2023-04-22T12:27:02.333Z,36.16
2023-04-22T12:29:32.547Z,35.82
2023-04-22T12:32:03.163Z,36.00
2023-04-22T12:34:31.871Z,36.10
2023-04-22T12:37:01.258Z,36.48
2023-04-22T12:39:32.649Z,36.03
2023-04-22T12:42:01.145Z,34.48
2023-04-22T12:44:30.943Z,33.18
2023-04-22T12:47:00.038Z,34.07
2023-04-22T12:49:28.577Z,33.99
2023-04-22T12:51:57.322Z,33.88
2023-04-22T12:54:26.096Z,33.26
2023-04-22T12:56:58.076Z,31.10
2023-04-22T12:59:27.078Z,33.14
2023-04-22T13:01:56.509Z,33.25
2023-04-22T13:04:25.228Z,33.25
2023-04-22T13:06:56.633Z,34.50
2023-04-22T13:09:27.654Z,33.76
2023-04-22T13:11:58.584Z,34.10
2023-04-22T13:14:33.287Z,35.11
2023-04-22T13:17:05.217Z,34.36
2023-04-22T13:19:35.667Z,36.02
2023-04-22T13:22:04.654Z,35.33
2023-04-22T13:24:33.736Z,35.58
2023-04-22T13:27:04.696Z,35.37
2023-04-22T13:29:33.479Z,34.28
2023-04-22T13:32:01.981Z,34.54
2023-04-22T13:34:30.664Z,32.56
2023-04-22T13:37:00.022Z,33.66
2023-04-22T13:39:29.857Z,32.49
2023-04-22T13:41:58.684Z,32.80
2023-04-22T13:44:29.336Z,32.77
2023-04-22T13:46:58.060Z,32.81
2023-04-22T13:49:27.686Z,31.58
2023-04-22T13:51:56.722Z,32.62
2023-04-22T13:54:26.306Z,32.27
2023-04-22T13:56:55.118Z,32.43
2023-04-22T13:59:24.302Z,33.19
2023-04-22T14:01:54.109Z,33.47
2023-04-22T14:04:22.727Z,33.72
2023-04-22T14:06:51.585Z,33.59
2023-04-22T14:09:20.200Z,33.50
2023-04-22T14:11:48.914Z,33.98
2023-04-22T14:14:17.926Z,33.95
2023-04-22T14:16:46.509Z,34.22
2023-04-22T14:19:17.130Z,33.93
2023-04-22T14:21:46.001Z,34.06
2023-04-22T14:24:14.694Z,33.10
2023-04-22T14:26:43.191Z,33.14
2023-04-22T14:29:11.963Z,33.26
2023-04-22T14:31:40.700Z,32.71
2023-04-22T14:34:09.456Z,33.45
2023-04-22T14:36:39.403Z,34.33
2023-04-22T14:39:07.966Z,35.04
2023-04-22T14:41:37.157Z,34.94
2023-04-22T14:44:05.825Z,35.02
2023-04-22T14:46:35.256Z,34.64
2023-04-22T14:49:03.774Z,34.13
2023-04-22T14:51:32.880Z,34.57
2023-04-22T14:54:03.268Z,34.37
2023-04-22T14:56:31.947Z,33.97
2023-04-22T14:59:00.434Z,33.58
2023-04-22T15:01:29.165Z,33.75
2023-04-22T15:04:03.323Z,33.73
2023-04-22T15:06:33.052Z,33.86
2023-04-22T15:09:03.052Z,32.86
2023-04-22T15:11:35.010Z,33.94
2023-04-22T15:14:03.501Z,34.30
2023-04-22T15:16:32.145Z,34.46
2023-04-22T15:19:01.835Z,34.54
2023-04-22T15:21:30.683Z,34.16
2023-04-22T15:23:59.236Z,33.96
2023-04-22T15:26:29.233Z,33.90
2023-04-22T15:28:57.638Z,34.63
2023-04-22T15:31:26.990Z,34.29
2023-04-22T15:33:56.463Z,34.83
2023-04-22T15:36:25.361Z,34.08
2023-04-22T15:38:56.612Z,36.33
2023-04-22T15:41:25.578Z,34.71
2023-04-22T15:43:55.417Z,34.64
2023-04-22T15:46:24.640Z,35.09
2023-04-22T15:48:53.097Z,35.01
2023-04-22T15:51:22.080Z,35.97
2023-04-22T15:53:50.987Z,36.38
2023-04-22T15:56:19.650Z,35.40
2023-04-22T15:58:48.085Z,35.67
2023-04-22T16:01:19.744Z,36.68
2023-04-22T16:03:49.492Z,35.93
2023-04-22T16:06:18.827Z,36.10
2023-04-22T16:08:47.938Z,35.17
2023-04-22T16:11:17.443Z,35.34
2023-04-22T16:13:46.554Z,36.09
2023-04-22T16:16:15.052Z,36.22
2023-04-22T16:18:45.068Z,35.85
2023-04-22T16:21:13.638Z,37.41
2023-04-22T16:23:42.155Z,36.39
2023-04-22T16:26:11.074Z,37.13
2023-04-22T16:28:39.507Z,37.47
2023-04-22T16:33:38.043Z,35.55
2023-04-22T16:36:10.472Z,36.57
2023-04-22T16:38:44.553Z,35.73
2023-04-22T16:41:20.496Z,36.49
2023-04-22T16:43:48.941Z,36.24
2023-04-22T16:46:22.879Z,35.06
2023-04-22T16:48:52.252Z,34.86
2023-04-22T16:51:22.752Z,36.18
2023-04-22T16:53:51.894Z,35.76
2023-04-22T16:56:20.408Z,36.57
2023-04-22T16:58:48.784Z,37.37
2023-04-22T17:01:17.654Z,36.95
2023-04-22T17:03:47.317Z,37.46
2023-04-22T17:06:16.533Z,36.83
2023-04-22T17:08:47.023Z,36.71
2023-04-22T17:11:15.433Z,37.18
2023-04-22T17:13:43.910Z,38.49
2023-04-22T17:16:12.505Z,37.00
2023-04-22T17:18:41.205Z,37.01
2023-04-22T17:21:09.653Z,37.75
2023-04-22T17:23:38.618Z,37.14
2023-04-22T17:26:08.681Z,37.33
2023-04-22T17:28:37.159Z,37.69
2023-04-22T17:31:05.785Z,37.78
2023-04-22T17:33:37.127Z,37.97
2023-04-22T17:36:05.962Z,37.68
2023-04-22T17:38:36.072Z,37.77
2023-04-22T17:41:05.268Z,37.78
2023-04-22T17:43:35.450Z,39.33
2023-04-22T17:46:04.135Z,38.06
2023-04-22T17:48:32.855Z,36.86
2023-04-22T17:51:05.311Z,37.83
2023-04-22T17:53:34.127Z,38.12
2023-04-22T17:56:02.632Z,38.21
2023-04-22T17:58:31.526Z,39.14
2023-04-22T18:01:10.348Z,39.40
2023-04-22T18:03:46.261Z,39.17
2023-04-22T18:06:17.112Z,39.22
2023-04-22T18:08:46.054Z,40.08
2023-04-22T18:11:20.870Z,39.32
2023-04-22T18:13:50.571Z,40.76
2023-04-22T18:16:20.466Z,41.11
2023-04-22T18:18:48.865Z,41.91
2023-04-22T18:21:17.316Z,40.67
2023-04-22T18:23:45.924Z,40.14
2023-04-22T18:26:14.562Z,40.28
2023-04-22T18:28:44.765Z,40.32
2023-04-22T18:31:13.284Z,40.81
2023-04-22T18:33:43.367Z,41.00
2023-04-22T18:36:12.026Z,41.25
2023-04-22T18:38:40.753Z,42.08
2023-04-22T18:41:13.208Z,42.89
2023-04-22T18:43:41.670Z,43.88
2023-04-22T18:46:10.417Z,44.32
2023-04-22T18:48:39.126Z,45.68
2023-04-22T18:51:09.446Z,46.64
2023-04-22T18:53:38.960Z,47.21
2023-04-22T18:56:07.780Z,47.90
2023-04-22T18:58:36.539Z,48.56
2023-04-22T19:01:05.907Z,48.95
2023-04-22T19:03:34.648Z,49.35
2023-04-22T19:06:03.234Z,49.46
2023-04-22T19:08:33.117Z,49.88
2023-04-22T19:11:01.973Z,50.44
2023-04-22T19:13:31.898Z,51.03
2023-04-22T19:16:00.579Z,50.79
2023-04-22T19:18:29.226Z,50.57
2023-04-22T19:20:58.326Z,50.50
2023-04-22T19:23:26.797Z,51.56
2023-04-22T19:25:56.991Z,52.28
2023-04-22T19:28:25.505Z,51.85
2023-04-22T19:30:54.284Z,52.27
2023-04-22T19:33:22.743Z,52.38
2023-04-22T19:35:51.709Z,52.35
2023-04-22T19:38:22.576Z,53.13
2023-04-22T19:40:51.028Z,54.13
2023-04-22T19:43:22.040Z,55.08
2023-04-22T19:45:50.788Z,55.44
2023-04-22T19:48:19.869Z,55.96
2023-04-22T19:50:50.262Z,56.86
2023-04-22T19:53:20.328Z,56.91
2023-04-22T19:55:49.152Z,57.45
2023-04-22T19:58:18.207Z,57.96
2023-04-22T20:00:49.608Z,58.43
2023-04-22T20:03:18.719Z,58.86
2023-04-22T20:05:50.018Z,59.34
2023-04-22T20:08:20.921Z,63.38
2023-04-22T20:10:50.569Z,61.37
2023-04-22T20:13:19.619Z,60.87
2023-04-22T20:15:49.900Z,60.92
2023-04-22T20:18:19.880Z,61.73
2023-04-22T20:20:50.656Z,61.67
2023-04-22T20:23:22.451Z,62.48
2023-04-22T20:25:51.320Z,62.68
2023-04-22T20:28:20.017Z,63.24
2023-04-22T20:30:50.268Z,63.52
2023-04-22T20:33:20.694Z,63.21
2023-04-22T20:35:51.239Z,63.63
2023-04-22T20:38:20.692Z,63.15
2023-04-22T20:40:51.991Z,64.12
2023-04-22T20:43:20.654Z,64.25
2023-04-22T20:45:50.520Z,64.47
2023-04-22T20:48:19.077Z,65.09
2023-04-22T20:50:47.539Z,66.03
2023-04-22T20:53:15.962Z,66.62
2023-04-22T20:55:44.505Z,67.08
2023-04-22T20:58:12.903Z,67.49
2023-04-22T21:00:41.421Z,67.59
2023-04-22T21:03:11.768Z,68.56
2023-04-22T21:05:43.909Z,69.18
2023-04-22T21:08:24.751Z,69.94
2023-04-22T21:10:54.679Z,70.40
2023-04-22T21:13:23.965Z,70.73
2023-04-22T21:15:57.587Z,72.39
2023-04-22T21:18:29.432Z,72.00
2023-04-22T21:20:58.940Z,72.76
2023-04-22T21:23:28.171Z,72.29
2023-04-22T21:25:58.192Z,72.77
2023-04-22T21:28:27.072Z,73.29
2023-04-22T21:30:56.162Z,73.23
2023-04-22T21:33:25.380Z,73.69
2023-04-22T21:35:55.423Z,74.29
2023-04-22T21:38:23.917Z,74.33
2023-04-22T21:40:52.613Z,74.33
2023-04-22T21:43:21.050Z,73.92
2023-04-22T21:45:49.574Z,74.50
2023-04-22T21:48:17.724Z,74.81
2023-04-22T21:50:46.034Z,75.13
2023-04-22T21:53:15.632Z,75.18
2023-04-22T21:55:43.896Z,75.40
2023-04-22T21:58:12.103Z,75.26
2023-04-22T22:00:40.372Z,75.04
2023-04-22T22:03:08.742Z,75.39
2023-04-22T22:05:37.640Z,75.86
2023-04-22T22:08:05.978Z,76.12
2023-04-22T22:10:35.851Z,76.85
2023-04-22T22:13:04.163Z,76.78
2023-04-22T22:15:32.406Z,77.61
2023-04-22T22:18:00.889Z,77.50
2023-04-22T22:20:29.892Z,77.45
2023-04-22T22:22:58.272Z,77.17
2023-04-22T22:25:26.805Z,77.53
2023-04-22T22:27:56.579Z,78.29
2023-04-22T22:30:25.062Z,79.16
2023-04-22T22:32:53.561Z,79.00
2023-04-22T22:35:21.980Z,79.07
2023-04-22T22:37:50.426Z,78.57
2023-04-22T22:40:25.051Z,79.37
2023-04-22T22:42:53.726Z,79.29
2023-04-22T22:45:23.965Z,79.63
2023-04-22T22:47:53.828Z,79.37
2023-04-22T22:50:22.462Z,80.19
2023-04-22T22:52:50.872Z,80.23
2023-04-22T22:55:20.111Z,81.06
2023-04-22T22:57:48.597Z,80.42
2023-04-22T23:00:17.750Z,80.28
2023-04-22T23:02:48.145Z,80.74
2023-04-22T23:05:16.768Z,80.06
2023-04-22T23:07:45.349Z,81.54
2023-04-22T23:10:14.092Z,80.73
2023-04-22T23:12:42.588Z,81.45
2023-04-22T23:15:11.887Z,82.05
2023-04-22T23:17:40.582Z,81.70
2023-04-22T23:20:12.301Z,81.82
2023-04-22T23:22:42.371Z,81.53
2023-04-22T23:25:12.547Z,82.17
2023-04-22T23:27:43.212Z,81.55
2023-04-22T23:30:12.640Z,81.63
2023-04-22T23:32:42.107Z,81.95
2023-04-22T23:35:14.256Z,82.07
2023-04-22T23:37:45.965Z,82.25
2023-04-22T23:40:15.264Z,82.59
2023-04-22T23:42:43.783Z,82.89
2023-04-22T23:45:13.147Z,83.32
2023-04-22T23:47:41.963Z,82.86
2023-04-22T23:50:14.242Z,83.34
2023-04-22T23:52:43.090Z,83.34
2023-04-22T23:55:14.337Z,86.78
2023-04-22T23:57:44.274Z,87.13
